createdAt,value
2022-10-10T00:01:26.308Z,100269.41
2022-10-10T00:04:29.558Z,100268.16
2022-10-10T00:07:32.793Z,100284.72
2022-10-10T00:10:37.809Z,100285.75
2022-10-10T00:13:41.876Z,100291.34
2022-10-10T00:16:45.025Z,100294.13
2022-10-10T00:19:48.264Z,100297.84
2022-10-10T00:22:51.654Z,100294.69
2022-10-10T00:25:56.557Z,100296.59
2022-10-10T00:28:59.804Z,100295.91
2022-10-10T00:32:03.023Z,100303.69
2022-10-10T00:35:07.273Z,100314.94
2022-10-10T00:38:10.685Z,100312.16
2022-10-10T00:41:15.306Z,100311.75
2022-10-10T00:44:18.724Z,100311.88
2022-10-10T00:47:21.898Z,100310.91
2022-10-10T00:50:26.243Z,100316.31
2022-10-10T00:53:34.089Z,100322.00
2022-10-10T00:56:43.325Z,100320.63
2022-10-10T00:59:47.841Z,100320.78
2022-10-10T01:02:51.541Z,100307.94
2022-10-10T01:05:55.127Z,100310.50
2022-10-10T01:08:58.910Z,100313.34
2022-10-10T01:12:18.955Z,100307.88
2022-10-10T01:15:26.678Z,100305.06
2022-10-10T01:18:39.499Z,100317.03
2022-10-10T01:21:52.512Z,100318.78
2022-10-10T01:25:07.982Z,100315.44
2022-10-10T01:28:23.493Z,100327.50
2022-10-10T01:31:27.983Z,100320.97
2022-10-10T01:34:38.151Z,100325.41
2022-10-10T01:37:49.851Z,100325.09
2022-10-10T01:40:57.191Z,100328.69
2022-10-10T01:44:01.891Z,100324.09
2022-10-10T01:47:05.219Z,100328.06
2022-10-10T01:50:13.381Z,100338.59
2022-10-10T01:53:24.513Z,100337.44
2022-10-10T01:56:35.360Z,100336.94
2022-10-10T01:59:50.068Z,100345.19
2022-10-10T02:02:59.654Z,100351.13
2022-10-10T02:06:08.964Z,100342.56
2022-10-10T02:09:18.188Z,100349.13
2022-10-10T02:12:24.643Z,100351.13
2022-10-10T02:15:35.669Z,100351.94
2022-10-10T02:18:40.456Z,100362.66
2022-10-10T02:21:44.145Z,100356.41
2022-10-10T02:24:47.392Z,100352.94
2022-10-10T02:28:00.830Z,100351.28
2022-10-10T02:31:08.640Z,100355.06
2022-10-10T02:34:14.784Z,100343.88
2022-10-10T02:37:19.468Z,100349.16
2022-10-10T02:40:26.653Z,100355.25
2022-10-10T02:43:29.967Z,100362.31
2022-10-10T02:46:34.864Z,100363.97
2022-10-10T02:49:38.291Z,100363.66
2022-10-10T02:52:41.605Z,100360.38
2022-10-10T02:55:45.101Z,100373.50
2022-10-10T02:58:48.314Z,100371.41
2022-10-10T03:01:52.871Z,100381.13
2022-10-10T03:04:56.052Z,100383.59
2022-10-10T03:07:59.221Z,100388.69
2022-10-10T03:11:03.222Z,100382.75
2022-10-10T03:14:06.456Z,100388.84
2022-10-10T03:17:11.126Z,100390.38
2022-10-10T03:20:14.381Z,100390.69
2022-10-10T03:23:17.584Z,100388.72
2022-10-10T03:26:20.844Z,100388.84
2022-10-10T03:29:24.118Z,100398.91
2022-10-10T03:32:28.795Z,100391.34
2022-10-10T03:35:32.058Z,100391.97
2022-10-10T03:38:35.342Z,100388.03
2022-10-10T03:41:38.482Z,100393.63
2022-10-10T03:44:41.681Z,100388.22
2022-10-10T03:47:46.278Z,100390.34
2022-10-10T03:50:49.466Z,100380.66
2022-10-10T03:53:52.670Z,100393.03
2022-10-10T03:56:55.882Z,100391.03
2022-10-10T03:59:59.028Z,100394.63
2022-10-10T04:03:06.375Z,100391.34
2022-10-10T04:06:09.565Z,100397.59
2022-10-10T04:09:12.783Z,100396.59
2022-10-10T04:12:15.998Z,100403.34
2022-10-10T04:15:19.229Z,100404.69
2022-10-10T04:18:24.439Z,100402.66
2022-10-10T04:21:27.667Z,100413.84
2022-10-10T04:24:31.021Z,100410.72
2022-10-10T04:27:34.282Z,100410.94
2022-10-10T04:30:37.502Z,100399.53
2022-10-10T04:33:42.132Z,100405.78
2022-10-10T04:36:45.327Z,100405.13
2022-10-10T04:39:48.551Z,100415.63
2022-10-10T04:42:52.045Z,100418.97
2022-10-10T04:45:57.685Z,100424.09
2022-10-10T04:49:02.276Z,100421.75
2022-10-10T04:52:05.490Z,100427.22
2022-10-10T04:55:09.202Z,100430.50
2022-10-10T04:58:12.579Z,100424.59
2022-10-10T05:01:16.026Z,100433.09
2022-10-10T05:04:20.782Z,100444.53
2022-10-10T05:07:24.170Z,100441.75
2022-10-10T05:10:27.783Z,100448.97
2022-10-10T05:13:30.993Z,100447.56
2022-10-10T05:16:34.584Z,100458.78
2022-10-10T05:19:39.199Z,100463.72
2022-10-10T05:22:42.411Z,100457.63
2022-10-10T05:25:46.177Z,100461.16
2022-10-10T05:28:49.372Z,100465.09
2022-10-10T05:31:52.597Z,100469.25
2022-10-10T05:34:57.177Z,100470.91
2022-10-10T05:38:00.491Z,100476.59
2022-10-10T05:41:04.363Z,100479.72
2022-10-10T05:44:07.630Z,100482.53
2022-10-10T05:47:10.985Z,100484.34
2022-10-10T05:50:29.124Z,100480.50
2022-10-10T05:53:32.387Z,100482.91
2022-10-10T05:56:35.564Z,100491.38
2022-10-10T05:59:38.751Z,100490.84
2022-10-10T06:02:42.094Z,100498.53
2022-10-10T06:05:49.238Z,100496.25
2022-10-10T06:08:52.539Z,100505.31
2022-10-10T06:11:55.731Z,100504.84
2022-10-10T06:14:58.922Z,100510.22
2022-10-10T06:18:02.236Z,100508.34
2022-10-10T06:21:09.189Z,100505.75
2022-10-10T06:24:12.497Z,100507.41
2022-10-10T06:27:15.736Z,100509.22
2022-10-10T06:30:18.974Z,100513.81
2022-10-10T06:33:22.256Z,100512.84
2022-10-10T06:36:26.839Z,100505.72
2022-10-10T06:39:30.157Z,100509.47
2022-10-10T06:42:34.385Z,100508.53
2022-10-10T06:45:37.704Z,100519.44
2022-10-10T06:48:41.036Z,100521.13
2022-10-10T06:51:45.746Z,100518.75
2022-10-10T06:54:48.960Z,100516.75
2022-10-10T06:57:52.221Z,100519.31
2022-10-10T07:00:57.005Z,100516.28
2022-10-10T07:04:00.225Z,100518.44
2022-10-10T07:07:04.902Z,100521.66
2022-10-10T07:10:09.639Z,100523.47
2022-10-10T07:13:12.936Z,100521.63
2022-10-10T07:16:16.135Z,100523.38
2022-10-10T07:19:21.634Z,100525.53
2022-10-10T07:22:26.814Z,100524.53
2022-10-10T07:25:30.489Z,100528.44
2022-10-10T07:28:34.505Z,100521.88
2022-10-10T07:31:37.892Z,100528.66
2022-10-10T07:34:47.015Z,100529.03
2022-10-10T07:37:55.495Z,100527.25
2022-10-10T07:40:58.716Z,100531.84
2022-10-10T07:44:01.957Z,100532.03
2022-10-10T07:47:05.240Z,100526.38
2022-10-10T07:50:09.224Z,100530.28
2022-10-10T07:53:13.986Z,100526.00
2022-10-10T07:56:17.171Z,100524.97
2022-10-10T07:59:20.355Z,100525.13
2022-10-10T08:02:23.559Z,100530.91
2022-10-10T08:05:26.767Z,100526.00
2022-10-10T08:08:34.144Z,100528.28
2022-10-10T08:11:37.694Z,100524.97
2022-10-10T08:14:41.115Z,100535.41
2022-10-10T08:17:44.308Z,100530.91
2022-10-10T08:20:47.570Z,100525.78
2022-10-10T08:23:52.274Z,100524.59
2022-10-10T08:26:55.427Z,100521.06
2022-10-10T08:29:58.654Z,100521.47
2022-10-10T08:33:02.668Z,100519.13
2022-10-10T08:36:08.192Z,100522.63
2022-10-10T08:39:12.814Z,100519.66
2022-10-10T08:42:18.875Z,100516.88
2022-10-10T08:45:26.054Z,100518.09
2022-10-10T08:48:31.263Z,100511.16
2022-10-10T08:51:35.504Z,100512.59
2022-10-10T08:54:42.431Z,100509.34
2022-10-10T08:57:51.680Z,100501.97
2022-10-10T09:01:03.684Z,100498.44
2022-10-10T09:04:08.896Z,100506.75
2022-10-10T09:07:25.871Z,100508.16
2022-10-10T09:10:38.903Z,100495.25
2022-10-10T09:13:51.811Z,100500.38
2022-10-10T09:17:01.602Z,100491.56
2022-10-10T09:20:17.061Z,100491.13
2022-10-10T09:23:24.803Z,100496.47
2022-10-10T09:26:32.401Z,100489.91
2022-10-10T09:29:44.128Z,100494.91
2022-10-10T09:32:52.754Z,100495.31
2022-10-10T09:35:59.328Z,100485.91
2022-10-10T09:39:06.538Z,100482.03
2022-10-10T09:42:15.036Z,100486.50
2022-10-10T09:45:21.939Z,100483.06
2022-10-10T09:48:29.240Z,100480.16
2022-10-10T09:51:33.442Z,100469.78
2022-10-10T09:54:36.726Z,100467.94
2022-10-10T09:57:43.936Z,100456.41
2022-10-10T10:00:47.373Z,100458.44
2022-10-10T10:04:27.177Z,100463.78
2022-10-10T10:07:33.459Z,100460.28
2022-10-10T10:10:37.238Z,100452.78
2022-10-10T10:13:42.721Z,100462.63
2022-10-10T10:16:45.978Z,100455.06
2022-10-10T10:19:49.730Z,100461.94
2022-10-10T10:26:02.899Z,100440.66
2022-10-10T10:29:31.449Z,100447.78
2022-10-10T10:32:46.883Z,100440.34
2022-10-10T10:36:00.212Z,100437.44
2022-10-10T10:39:19.499Z,100436.25
2022-10-10T10:42:37.050Z,100421.03
2022-10-10T10:45:53.727Z,100430.03
2022-10-10T10:49:03.168Z,100422.97
2022-10-10T10:52:29.211Z,100418.53
2022-10-10T10:55:40.705Z,100415.78
2022-10-10T10:59:35.665Z,100414.66
2022-10-10T11:02:57.383Z,100405.63
2022-10-10T11:06:23.568Z,100404.97
2022-10-10T11:09:49.199Z,100393.91
2022-10-10T11:13:04.625Z,100399.22
2022-10-10T11:16:36.366Z,100391.63
2022-10-10T11:19:44.385Z,100391.22
2022-10-10T11:22:53.054Z,100383.72
2022-10-10T11:26:01.589Z,100390.66
2022-10-10T11:29:10.999Z,100390.56
2022-10-10T11:35:36.494Z,100391.25
2022-10-10T11:38:45.136Z,100387.63
2022-10-10T11:41:53.380Z,100382.94
2022-10-10T11:45:01.092Z,100391.72
2022-10-10T11:48:15.800Z,100376.34
2022-10-10T11:51:27.643Z,100380.44
2022-10-10T11:54:41.846Z,100373.31
2022-10-10T11:57:51.280Z,100369.00
2022-10-10T12:00:58.556Z,100369.00
2022-10-10T12:04:01.842Z,100358.56
2022-10-10T12:07:12.844Z,100351.53
2022-10-10T12:10:23.485Z,100359.28
2022-10-10T12:13:32.576Z,100356.19
2022-10-10T12:16:37.958Z,100345.47
2022-10-10T12:19:41.232Z,100355.75
2022-10-10T12:23:09.863Z,100343.88
2022-10-10T12:26:17.816Z,100353.09
2022-10-10T12:29:42.217Z,100353.72
2022-10-10T12:32:46.594Z,100354.41
2022-10-10T12:35:49.825Z,100351.13
2022-10-10T12:39:22.677Z,100344.00
2022-10-10T12:42:32.433Z,100353.19
2022-10-10T12:46:16.093Z,100347.63
2022-10-10T12:49:22.415Z,100336.13
2022-10-10T12:52:28.415Z,100338.41
2022-10-10T12:55:33.891Z,100336.38
2022-10-10T12:58:41.510Z,100332.47
2022-10-10T13:01:51.031Z,100335.78
2022-10-10T13:04:57.277Z,100328.44
2022-10-10T13:08:02.744Z,100329.25
2022-10-10T13:11:08.974Z,100338.50
2022-10-10T13:14:15.044Z,100337.06
2022-10-10T13:17:29.672Z,100326.81
2022-10-10T13:20:37.524Z,100322.91
2022-10-10T13:27:08.143Z,100304.81
2022-10-10T13:30:20.246Z,100298.69
2022-10-10T13:33:29.885Z,100296.03
2022-10-10T13:36:33.697Z,100298.50
2022-10-10T13:39:39.336Z,100296.81
2022-10-10T13:42:42.882Z,100291.78
2022-10-10T13:45:49.619Z,100296.63
2022-10-10T13:48:52.918Z,100293.94
2022-10-10T13:52:05.204Z,100291.28
2022-10-10T13:55:25.166Z,100290.84
2022-10-10T13:58:30.160Z,100289.19
2022-10-10T14:01:37.991Z,100290.06
2022-10-10T14:04:46.525Z,100286.69
2022-10-10T14:07:51.395Z,100300.81
2022-10-10T14:11:00.385Z,100291.28
2022-10-10T14:14:09.230Z,100290.88
2022-10-10T14:17:15.016Z,100293.28
2022-10-10T14:20:18.229Z,100287.72
2022-10-10T14:23:21.509Z,100297.53
2022-10-10T14:26:24.735Z,100292.22
2022-10-10T14:29:27.948Z,100284.84
2022-10-10T14:32:33.006Z,100277.31
2022-10-10T14:35:36.536Z,100274.91
2022-10-10T14:38:39.890Z,100273.31
2022-10-10T14:41:43.702Z,100262.66
2022-10-10T14:44:47.244Z,100261.19
2022-10-10T14:47:52.282Z,100264.22
2022-10-10T14:50:55.568Z,100263.25
2022-10-10T14:54:10.057Z,100268.06
2022-10-10T14:57:15.770Z,100276.19
2022-10-10T15:00:21.516Z,100268.81
2022-10-10T15:03:26.322Z,100274.38
2022-10-10T15:06:29.609Z,100265.31
2022-10-10T15:09:41.571Z,100267.75
2022-10-10T15:12:48.269Z,100259.22
2022-10-10T15:15:51.607Z,100260.50
2022-10-10T15:18:56.281Z,100258.66
2022-10-10T15:21:59.426Z,100257.22
2022-10-10T15:25:02.670Z,100256.59
2022-10-10T15:28:06.216Z,100257.47
2022-10-10T15:31:09.515Z,100261.94
2022-10-10T15:34:14.836Z,100263.81
2022-10-10T15:37:18.124Z,100264.22
2022-10-10T15:40:23.303Z,100265.84
2022-10-10T15:43:27.173Z,100259.31
2022-10-10T15:46:31.134Z,100262.56
2022-10-10T15:49:35.748Z,100264.22
2022-10-10T15:52:39.778Z,100263.19
2022-10-10T15:55:43.856Z,100263.41
2022-10-10T16:01:50.084Z,100265.63
2022-10-10T16:04:54.711Z,100266.66
2022-10-10T16:07:57.868Z,100272.41
2022-10-10T16:11:06.047Z,100270.56
2022-10-10T16:14:09.261Z,100273.81
2022-10-10T16:17:12.541Z,100269.94
2022-10-10T16:20:17.232Z,100271.34
2022-10-10T16:23:20.519Z,100272.09
2022-10-10T16:26:26.753Z,100276.59
2022-10-10T16:29:30.031Z,100283.34
2022-10-10T16:32:38.011Z,100277.56
2022-10-10T16:35:45.640Z,100280.81
2022-10-10T16:38:49.643Z,100281.84
2022-10-10T16:41:52.871Z,100281.44
2022-10-10T16:44:56.059Z,100279.56
2022-10-10T16:47:59.220Z,100286.50
2022-10-10T16:51:05.584Z,100285.69
2022-10-10T16:54:08.951Z,100276.50
2022-10-10T16:57:14.497Z,100284.88
2022-10-10T17:00:18.049Z,100285.63
2022-10-10T17:03:21.681Z,100292.72
2022-10-10T17:06:28.117Z,100295.88
2022-10-10T17:09:34.566Z,100299.31
2022-10-10T17:12:37.803Z,100311.97
2022-10-10T17:15:43.949Z,100310.00
2022-10-10T17:18:47.204Z,100313.16
2022-10-10T17:21:51.848Z,100314.50
2022-10-10T17:24:55.132Z,100314.69
2022-10-10T17:27:58.282Z,100323.69
2022-10-10T17:31:01.892Z,100317.25
2022-10-10T17:34:05.403Z,100319.03
2022-10-10T17:37:10.012Z,100307.38
2022-10-10T17:40:13.658Z,100308.06
2022-10-10T17:43:16.875Z,100314.13
2022-10-10T17:46:37.511Z,100313.06
2022-10-10T17:49:46.344Z,100318.38
2022-10-10T17:52:50.977Z,100315.97
2022-10-10T17:55:54.368Z,100325.19
2022-10-10T17:58:59.622Z,100317.41
2022-10-10T18:02:02.836Z,100321.56
2022-10-10T18:05:06.721Z,100324.19
2022-10-10T18:08:11.378Z,100320.84
2022-10-10T18:11:16.899Z,100327.19
2022-10-10T18:14:22.394Z,100323.19
2022-10-10T18:17:25.618Z,100320.69
2022-10-10T18:20:28.860Z,100328.56
2022-10-10T18:23:33.903Z,100335.22
2022-10-10T18:26:37.247Z,100338.16
2022-10-10T18:29:40.638Z,100332.91
2022-10-10T18:32:43.867Z,100341.31
2022-10-10T18:35:47.103Z,100331.03
2022-10-10T18:38:51.782Z,100321.56
2022-10-10T18:41:54.986Z,100328.22
2022-10-10T18:44:58.274Z,100332.25
2022-10-10T18:48:01.534Z,100339.88
2022-10-10T18:51:06.741Z,100328.38
2022-10-10T18:54:14.813Z,100334.50
2022-10-10T18:57:18.281Z,100334.56
2022-10-10T19:00:25.139Z,100334.28
2022-10-10T19:03:28.821Z,100341.25
2022-10-10T19:06:32.108Z,100335.03
2022-10-10T19:09:36.713Z,100341.91
2022-10-10T19:12:43.927Z,100346.91
2022-10-10T19:15:51.695Z,100341.16
2022-10-10T19:18:58.169Z,100343.88
2022-10-10T19:22:01.895Z,100342.03
2022-10-10T19:25:07.225Z,100346.50
2022-10-10T19:28:10.580Z,100342.88
2022-10-10T19:31:15.503Z,100350.88
2022-10-10T19:34:18.765Z,100350.06
2022-10-10T19:37:21.969Z,100353.38
2022-10-10T19:40:26.598Z,100356.94
2022-10-10T19:43:30.168Z,100356.53
2022-10-10T19:46:37.110Z,100352.38
2022-10-10T19:49:41.061Z,100353.78
2022-10-10T19:52:44.347Z,100356.66
2022-10-10T19:55:58.533Z,100352.56
2022-10-10T19:59:04.495Z,100352.72
2022-10-10T20:02:08.057Z,100355.63
2022-10-10T20:05:11.831Z,100354.91
2022-10-10T20:08:15.574Z,100353.81
2022-10-10T20:11:20.780Z,100361.28
2022-10-10T20:14:24.002Z,100362.13
2022-10-10T20:17:27.889Z,100358.56
2022-10-10T20:20:31.106Z,100356.91
2022-10-10T20:23:34.306Z,100363.03
2022-10-10T20:26:38.946Z,100362.28
2022-10-10T20:29:42.164Z,100365.31
2022-10-10T20:32:45.356Z,100356.47
2022-10-10T20:35:52.401Z,100362.31
2022-10-10T20:39:00.703Z,100362.28
2022-10-10T20:42:05.299Z,100366.00
2022-10-10T20:45:11.454Z,100364.19
2022-10-10T20:48:14.806Z,100364.75
2022-10-10T20:51:18.025Z,100368.38
2022-10-10T20:54:23.572Z,100361.38
2022-10-10T20:57:28.090Z,100360.91
2022-10-10T21:00:31.360Z,100369.03
2022-10-10T21:03:34.511Z,100367.78
2022-10-10T21:06:38.528Z,100370.19
2022-10-10T21:09:41.769Z,100367.63
2022-10-10T21:12:46.415Z,100376.53
2022-10-10T21:15:49.650Z,100374.38
2022-10-10T21:18:57.884Z,100373.78
2022-10-10T21:22:01.577Z,100376.78
2022-10-10T21:25:05.231Z,100368.91
2022-10-10T21:28:10.188Z,100368.19
2022-10-10T21:31:15.734Z,100372.13
2022-10-10T21:34:19.163Z,100371.72
2022-10-10T21:37:22.388Z,100367.63
2022-10-10T21:40:25.547Z,100369.41
2022-10-10T21:43:30.202Z,100364.25
2022-10-10T21:46:37.249Z,100367.66
2022-10-10T21:49:40.482Z,100366.97
2022-10-10T21:52:43.786Z,100371.50
2022-10-10T21:55:47.044Z,100377.09
2022-10-10T21:58:51.674Z,100369.13
2022-10-10T22:01:54.909Z,100374.06
2022-10-10T22:04:58.907Z,100367.47
2022-10-10T22:08:17.423Z,100360.97
2022-10-10T22:11:23.508Z,100368.78
2022-10-10T22:14:28.185Z,100363.13
2022-10-10T22:17:31.397Z,100364.47
2022-10-10T22:20:34.580Z,100355.69
2022-10-10T22:23:37.995Z,100364.91
2022-10-10T22:26:41.755Z,100359.38
2022-10-10T22:29:46.350Z,100359.78
2022-10-10T22:32:49.565Z,100357.53
2022-10-10T22:35:52.797Z,100351.25
2022-10-10T22:38:56.074Z,100353.06
2022-10-10T22:41:59.275Z,100363.16
2022-10-10T22:45:03.921Z,100357.66
2022-10-10T22:48:07.644Z,100358.91
2022-10-10T22:51:15.189Z,100367.38
2022-10-10T22:54:18.643Z,100362.84
2022-10-10T22:57:21.866Z,100365.03
2022-10-10T23:00:26.623Z,100354.69
2022-10-10T23:03:29.893Z,100353.03
2022-10-10T23:06:33.042Z,100360.16
2022-10-10T23:09:36.242Z,100364.94
2022-10-10T23:12:39.442Z,100366.13
2022-10-10T23:15:44.052Z,100368.25
2022-10-10T23:18:47.326Z,100372.88
2022-10-10T23:21:50.430Z,100366.94
2022-10-10T23:24:53.732Z,100377.59
2022-10-10T23:27:57.004Z,100380.44
2022-10-10T23:31:05.102Z,100384.38
2022-10-10T23:34:08.351Z,100394.66
2022-10-10T23:37:11.592Z,100389.72
2022-10-10T23:40:14.846Z,100391.03
2022-10-10T23:43:18.151Z,100387.75
2022-10-10T23:46:22.888Z,100390.78
2022-10-10T23:49:26.134Z,100388.34
2022-10-10T23:52:29.351Z,100380.31
2022-10-10T23:55:33.989Z,100389.69
2022-10-10T23:58:37.657Z,100387.53
